createdAt,value
2019-04-26T00:00:08.768Z,22.69
2019-04-26T00:01:05.174Z,22.56
2019-04-26T00:02:05.117Z,22.56
2019-04-26T00:03:05.266Z,22.50
2019-04-26T00:04:05.577Z,22.44
2019-04-26T00:05:05.433Z,22.31
2019-04-26T00:06:05.751Z,22.31
2019-04-26T00:07:05.142Z,22.31
2019-04-26T00:08:05.763Z,22.25
2019-04-26T00:09:05.261Z,22.06
2019-04-26T00:10:05.740Z,22.12
2019-04-26T00:11:05.490Z,22.00
2019-04-26T00:12:05.406Z,22.00
2019-04-26T00:13:05.613Z,21.88
2019-04-26T00:14:06.041Z,21.94
2019-04-26T00:15:05.673Z,22.00
2019-04-26T00:16:05.213Z,21.94
2019-04-26T00:17:05.332Z,21.81
2019-04-26T00:18:05.822Z,21.75
2019-04-26T00:19:05.076Z,21.62
2019-04-26T00:20:05.887Z,21.56
2019-04-26T00:21:05.888Z,21.44
2019-04-26T00:22:06.050Z,21.50
2019-04-26T00:23:05.649Z,21.44
2019-04-26T00:24:05.223Z,21.50
2019-04-26T00:25:05.735Z,21.69
2019-04-26T00:26:05.976Z,21.69
2019-04-26T00:27:05.186Z,21.94
2019-04-26T00:28:05.486Z,21.69
2019-04-26T00:29:05.834Z,21.62
2019-04-26T00:30:05.334Z,21.62
2019-04-26T00:31:06.407Z,21.56
2019-04-26T00:32:05.814Z,21.44
2019-04-26T00:33:05.273Z,21.38
2019-04-26T00:34:05.415Z,21.44
2019-04-26T00:35:05.896Z,21.44
2019-04-26T00:36:05.349Z,21.62
2019-04-26T00:37:05.265Z,21.56
2019-04-26T00:38:05.967Z,21.50
2019-04-26T00:39:05.164Z,21.44
2019-04-26T00:40:05.646Z,21.44
2019-04-26T00:41:05.809Z,21.38
2019-04-26T00:42:05.169Z,21.44
2019-04-26T00:43:05.501Z,21.44
2019-04-26T00:44:05.266Z,21.31
2019-04-26T00:45:05.246Z,21.31
2019-04-26T00:46:05.731Z,21.19
2019-04-26T00:47:05.760Z,21.06
2019-04-26T00:48:05.090Z,21.00
2019-04-26T00:49:05.347Z,21.00
2019-04-26T00:50:05.740Z,21.06
2019-04-26T00:51:05.584Z,21.00
2019-04-26T00:52:05.564Z,20.88
2019-04-26T00:53:05.514Z,20.94
2019-04-26T00:54:05.823Z,21.00
2019-04-26T00:55:05.998Z,21.00
2019-04-26T00:56:05.029Z,20.88
2019-04-26T00:57:05.461Z,20.88
2019-04-26T00:58:05.516Z,21.12
2019-04-26T00:59:05.678Z,21.56
2019-04-26T01:00:05.724Z,21.25
2019-04-26T01:01:05.244Z,21.50
2019-04-26T01:02:05.811Z,21.56
2019-04-26T01:03:05.333Z,21.44
2019-04-26T01:04:05.503Z,21.19
2019-04-26T01:05:05.681Z,21.12
2019-04-26T01:06:05.217Z,21.00
2019-04-26T01:07:05.483Z,21.00
2019-04-26T01:08:05.091Z,20.88
2019-04-26T01:09:05.085Z,20.88
2019-04-26T01:10:05.509Z,20.81
2019-04-26T01:11:05.660Z,20.69
2019-04-26T01:12:05.485Z,20.69
2019-04-26T01:13:05.977Z,20.69
2019-04-26T01:14:05.414Z,20.75
2019-04-26T01:15:06.055Z,20.69
2019-04-26T01:16:05.413Z,20.69
2019-04-26T01:17:05.978Z,20.75
2019-04-26T01:18:06.718Z,20.69
2019-04-26T01:19:05.326Z,20.62
2019-04-26T01:20:05.808Z,20.69
2019-04-26T01:21:05.417Z,21.12
2019-04-26T01:22:05.894Z,21.19
2019-04-26T01:23:05.731Z,21.00
2019-04-26T01:24:05.277Z,20.94
2019-04-26T01:25:05.342Z,20.81
2019-04-26T01:26:05.632Z,20.69
2019-04-26T01:27:05.646Z,20.62
2019-04-26T01:28:05.971Z,20.69
2019-04-26T01:29:05.743Z,20.62
2019-04-26T01:30:05.358Z,20.62
2019-04-26T01:31:05.406Z,20.62
2019-04-26T01:32:05.812Z,20.62
2019-04-26T01:33:05.279Z,20.62
2019-04-26T01:34:05.268Z,20.62
2019-04-26T01:35:05.432Z,20.50
2019-04-26T01:36:12.689Z,20.44
2019-04-26T01:37:06.059Z,20.56
2019-04-26T01:38:05.364Z,20.75
2019-04-26T01:39:05.322Z,20.69
2019-04-26T01:40:06.061Z,20.56
2019-04-26T01:41:05.163Z,20.75
2019-04-26T01:42:05.737Z,21.00
2019-04-26T01:43:05.735Z,21.12
2019-04-26T01:44:05.243Z,21.00
2019-04-26T01:45:05.754Z,21.00
2019-04-26T01:46:05.963Z,21.06
2019-04-26T01:47:05.430Z,20.88
2019-04-26T01:48:06.084Z,20.81
2019-04-26T01:49:05.091Z,20.69
2019-04-26T01:50:05.273Z,20.56
2019-04-26T01:51:05.831Z,20.69
2019-04-26T01:52:05.986Z,20.69
2019-04-26T01:53:05.015Z,20.56
2019-04-26T01:54:05.253Z,20.50
2019-04-26T01:55:05.333Z,20.50
2019-04-26T01:56:05.409Z,20.44
2019-04-26T01:57:05.508Z,20.69
2019-04-26T01:58:05.181Z,20.75
2019-04-26T01:59:05.345Z,20.56
2019-04-26T02:00:05.496Z,20.56
2019-04-26T02:01:05.824Z,20.50
2019-04-26T02:02:09.543Z,20.56
2019-04-26T02:03:05.517Z,20.50
2019-04-26T02:04:05.241Z,20.56
2019-04-26T02:05:05.813Z,20.69
2019-04-26T02:06:05.994Z,20.75
2019-04-26T02:07:05.101Z,20.69
2019-04-26T02:08:05.434Z,20.75
2019-04-26T02:09:05.576Z,20.62
2019-04-26T02:10:05.098Z,20.75
2019-04-26T02:11:05.569Z,20.81
2019-04-26T02:12:05.099Z,20.69
2019-04-26T02:13:05.264Z,20.62
2019-04-26T02:14:05.324Z,20.56
2019-04-26T02:15:05.593Z,20.44
2019-04-26T02:16:05.997Z,20.44
2019-04-26T02:17:05.479Z,20.44
2019-04-26T02:18:06.142Z,20.25
2019-04-26T02:19:05.022Z,20.25
2019-04-26T02:20:05.179Z,20.25
2019-04-26T02:21:05.587Z,20.25
2019-04-26T02:22:05.607Z,20.06
2019-04-26T02:23:05.009Z,20.00
2019-04-26T02:24:05.574Z,20.06
2019-04-26T02:25:05.736Z,19.94
2019-04-26T02:26:05.815Z,19.88
2019-04-26T02:27:06.061Z,19.88
2019-04-26T02:28:05.086Z,19.88
2019-04-26T02:29:05.215Z,19.94
2019-04-26T02:30:05.269Z,19.88
2019-04-26T02:31:05.578Z,19.88
2019-04-26T02:32:05.569Z,19.94
2019-04-26T02:33:06.059Z,19.94
2019-04-26T02:34:05.200Z,19.69
2019-04-26T02:35:05.346Z,19.62
2019-04-26T02:36:05.649Z,19.75
2019-04-26T02:37:05.735Z,19.56
2019-04-26T02:38:05.094Z,19.50
2019-04-26T02:39:05.814Z,19.62
2019-04-26T02:40:05.808Z,19.56
2019-04-26T02:41:05.497Z,19.62
2019-04-26T02:42:05.593Z,19.56
2019-04-26T02:43:05.011Z,19.62
2019-04-26T02:44:05.527Z,19.69
2019-04-26T02:45:05.586Z,19.69
2019-04-26T02:46:05.728Z,19.69
2019-04-26T02:47:05.180Z,19.69
2019-04-26T02:48:05.583Z,19.81
2019-04-26T02:49:05.811Z,19.62
2019-04-26T02:50:05.411Z,19.44
2019-04-26T02:51:05.801Z,19.50
2019-04-26T02:52:07.125Z,19.44
2019-04-26T02:53:05.080Z,19.38
2019-04-26T02:54:05.286Z,19.38
2019-04-26T02:55:05.500Z,19.50
2019-04-26T02:56:05.726Z,19.38
2019-04-26T02:57:05.587Z,19.44
2019-04-26T02:58:05.741Z,19.50
2019-04-26T02:59:05.812Z,19.44
2019-04-26T03:00:05.169Z,19.44
2019-04-26T03:01:05.408Z,19.44
2019-04-26T03:02:05.900Z,19.44
2019-04-26T03:03:06.055Z,19.56
2019-04-26T03:04:06.451Z,19.50
2019-04-26T03:05:05.736Z,19.56
2019-04-26T03:06:05.243Z,19.62
2019-04-26T03:07:05.984Z,19.81
2019-04-26T03:08:07.677Z,19.56
2019-04-26T03:09:05.406Z,19.31
2019-04-26T03:10:05.588Z,19.25
2019-04-26T03:11:05.644Z,19.19
2019-04-26T03:12:05.423Z,19.12
2019-04-26T03:13:05.461Z,19.19
2019-04-26T03:14:05.572Z,19.19
2019-04-26T03:15:13.652Z,19.12
2019-04-26T03:16:05.961Z,19.06
2019-04-26T03:17:05.536Z,18.94
2019-04-26T03:18:05.988Z,18.88
2019-04-26T03:19:05.188Z,18.88
2019-04-26T03:20:05.087Z,18.88
2019-04-26T03:21:05.985Z,18.81
2019-04-26T03:22:06.081Z,18.75
2019-04-26T03:23:05.097Z,18.81
2019-04-26T03:24:05.594Z,18.88
2019-04-26T03:25:05.826Z,18.81
2019-04-26T03:26:05.890Z,18.56
2019-04-26T03:27:05.521Z,18.44
2019-04-26T03:28:05.585Z,18.25
2019-04-26T03:29:05.745Z,18.31
2019-04-26T03:31:05.891Z,18.19
2019-04-26T03:32:05.274Z,18.38
2019-04-26T03:33:05.462Z,18.81
2019-04-26T03:34:06.100Z,18.75
2019-04-26T03:35:05.219Z,18.88
2019-04-26T03:36:05.193Z,18.75
2019-04-26T03:37:19.314Z,18.75
2019-04-26T03:38:05.751Z,18.69
2019-04-26T03:39:05.831Z,18.56
2019-04-26T03:40:06.124Z,18.50
2019-04-26T03:41:05.648Z,18.50
2019-04-26T03:42:05.420Z,18.38
2019-04-26T03:43:05.690Z,18.25
2019-04-26T03:44:05.972Z,18.31
2019-04-26T03:45:05.171Z,18.25
2019-04-26T03:46:05.817Z,18.38
2019-04-26T03:47:05.330Z,18.38
2019-04-26T03:48:06.219Z,18.38
2019-04-26T03:49:05.527Z,18.38
2019-04-26T03:50:05.910Z,18.44
2019-04-26T03:51:05.546Z,18.31
2019-04-26T03:52:05.975Z,18.19
2019-04-26T03:53:05.264Z,18.25
2019-04-26T03:54:05.825Z,18.12
2019-04-26T03:55:05.146Z,18.00
2019-04-26T03:56:06.043Z,17.94
2019-04-26T03:57:05.505Z,18.06
2019-04-26T03:58:05.431Z,18.00
2019-04-26T03:59:05.675Z,17.94
2019-04-26T04:00:05.162Z,17.81
2019-04-26T04:01:05.277Z,17.62
2019-04-26T04:02:05.655Z,17.69
2019-04-26T04:03:05.927Z,17.62
2019-04-26T04:04:05.747Z,17.69
2019-04-26T04:05:06.097Z,17.62
2019-04-26T04:06:05.272Z,17.62
2019-04-26T04:07:05.951Z,17.69
2019-04-26T04:08:06.307Z,17.56
2019-04-26T04:09:05.191Z,17.44
2019-04-26T04:10:05.896Z,17.56
2019-04-26T04:11:05.587Z,17.56
2019-04-26T04:12:11.366Z,17.50
2019-04-26T04:13:05.918Z,17.38
2019-04-26T04:14:05.709Z,17.44
2019-04-26T04:15:05.999Z,17.31
2019-04-26T04:16:05.417Z,17.25
2019-04-26T04:17:05.984Z,17.44
2019-04-26T04:18:05.342Z,17.44
2019-04-26T04:19:05.577Z,17.38
2019-04-26T04:20:05.257Z,17.19
2019-04-26T04:21:06.778Z,17.12
2019-04-26T04:22:06.053Z,17.19
2019-04-26T04:23:05.840Z,17.50
2019-04-26T04:24:05.403Z,17.31
2019-04-26T04:25:05.872Z,17.44
2019-04-26T04:26:05.409Z,17.38
2019-04-26T04:27:06.244Z,17.38
2019-04-26T04:28:05.577Z,17.44
2019-04-26T04:29:05.758Z,17.38
2019-04-26T04:30:05.285Z,17.69
2019-04-26T04:31:05.514Z,17.62
2019-04-26T04:32:06.070Z,17.38
2019-04-26T04:33:05.207Z,17.44
2019-04-26T04:34:05.591Z,17.38
2019-04-26T04:35:07.258Z,17.31
2019-04-26T04:36:05.971Z,17.25
2019-04-26T04:37:05.840Z,17.19
2019-04-26T04:38:09.370Z,17.44
2019-04-26T04:39:12.110Z,17.56
2019-04-26T04:40:05.824Z,17.56
2019-04-26T04:41:08.301Z,17.50
2019-04-26T04:42:05.600Z,17.44
2019-04-26T04:43:05.617Z,17.44
2019-04-26T04:44:05.180Z,17.62
2019-04-26T04:45:05.429Z,17.94
2019-04-26T04:46:05.786Z,18.25
2019-04-26T04:47:22.602Z,18.62
2019-04-26T04:48:05.653Z,18.81
2019-04-26T04:49:05.160Z,19.12
2019-04-26T04:50:05.368Z,19.50
2019-04-26T04:51:06.052Z,19.75
2019-04-26T04:52:05.510Z,20.00
2019-04-26T04:53:05.993Z,20.12
2019-04-26T04:54:05.180Z,20.25
2019-04-26T04:55:07.616Z,20.38
2019-04-26T04:56:05.822Z,20.50
2019-04-26T04:57:06.098Z,20.88
2019-04-26T04:58:05.298Z,21.12
2019-04-26T04:59:05.596Z,21.44
2019-04-26T05:00:05.096Z,21.69
2019-04-26T05:01:05.329Z,22.00
2019-04-26T05:02:05.817Z,22.00
2019-04-26T05:03:05.494Z,21.88
2019-04-26T05:04:05.193Z,22.25
2019-04-26T05:05:05.463Z,22.56
2019-04-26T05:06:07.502Z,22.62
2019-04-26T05:07:05.179Z,22.38
2019-04-26T05:08:07.061Z,22.44
2019-04-26T05:09:05.585Z,22.88
2019-04-26T05:10:05.647Z,23.50
2019-04-26T05:11:05.330Z,23.75
2019-04-26T05:12:05.193Z,23.81
2019-04-26T05:13:08.278Z,24.25
2019-04-26T05:14:05.610Z,24.56
2019-04-26T05:15:05.665Z,24.94
2019-04-26T05:16:05.989Z,25.12
2019-04-26T05:17:05.493Z,25.06
2019-04-26T05:18:06.074Z,24.94
2019-04-26T05:19:05.343Z,24.88
2019-04-26T05:20:05.833Z,24.75
2019-04-26T05:21:05.267Z,24.94
2019-04-26T05:22:05.586Z,24.94
2019-04-26T05:23:05.990Z,25.00
2019-04-26T05:24:05.229Z,25.25
2019-04-26T05:25:05.726Z,25.25
2019-04-26T05:26:05.975Z,24.88
2019-04-26T05:27:05.989Z,24.56
2019-04-26T05:28:05.345Z,24.56
2019-04-26T05:29:05.405Z,24.50
2019-04-26T05:30:05.417Z,24.38
2019-04-26T05:31:05.420Z,24.25
2019-04-26T05:32:05.500Z,24.25
2019-04-26T05:33:05.828Z,24.12
2019-04-26T05:34:05.155Z,24.12
2019-04-26T05:35:05.440Z,24.31
2019-04-26T05:36:05.659Z,24.44
2019-04-26T05:37:05.335Z,24.75
2019-04-26T05:38:12.486Z,24.88
2019-04-26T05:39:06.223Z,24.88
2019-04-26T05:40:06.012Z,24.69
2019-04-26T05:41:05.255Z,24.56
2019-04-26T05:42:05.246Z,24.56
2019-04-26T05:43:05.813Z,24.44
2019-04-26T05:44:06.003Z,24.31
2019-04-26T05:45:05.592Z,24.31
2019-04-26T05:46:05.835Z,24.44
2019-04-26T05:47:05.195Z,24.38
2019-04-26T05:48:11.384Z,24.19
2019-04-26T05:49:05.373Z,24.12
2019-04-26T05:50:05.346Z,24.12
2019-04-26T05:51:05.430Z,24.06
2019-04-26T05:52:05.736Z,24.06
2019-04-26T05:53:06.082Z,24.12
2019-04-26T05:54:05.089Z,24.00
2019-04-26T05:55:05.745Z,23.94
2019-04-26T05:56:06.048Z,23.81
2019-04-26T05:57:05.319Z,23.81
2019-04-26T05:58:06.012Z,23.88
2019-04-26T05:59:05.250Z,23.81
2019-04-26T06:00:05.154Z,23.88
2019-04-26T06:01:05.605Z,23.75
2019-04-26T06:02:05.832Z,23.69
2019-04-26T06:03:06.170Z,23.62
2019-04-26T06:04:05.567Z,23.75
2019-04-26T06:05:05.813Z,23.69
2019-04-26T06:06:05.410Z,23.69
2019-04-26T06:07:05.330Z,23.75
2019-04-26T06:08:05.291Z,23.81
2019-04-26T06:09:05.525Z,23.81
2019-04-26T06:10:05.680Z,23.81
2019-04-26T06:11:05.825Z,23.94
2019-04-26T06:12:05.497Z,23.88
2019-04-26T06:13:05.165Z,23.88
2019-04-26T06:14:06.057Z,24.00
2019-04-26T06:15:05.219Z,24.19
2019-04-26T06:16:06.760Z,24.25
2019-04-26T06:17:05.291Z,24.31
2019-04-26T06:18:05.761Z,24.38
2019-04-26T06:19:05.660Z,24.44
2019-04-26T06:20:05.419Z,24.56
2019-04-26T06:21:05.331Z,24.62
2019-04-26T06:22:05.099Z,24.69
2019-04-26T06:23:06.011Z,24.81
2019-04-26T06:24:05.177Z,24.94
2019-04-26T06:25:05.339Z,25.00
2019-04-26T06:26:05.571Z,25.00
2019-04-26T06:27:13.107Z,25.00
2019-04-26T06:28:05.731Z,25.00
2019-04-26T06:29:06.064Z,24.94
2019-04-26T06:30:05.452Z,25.00
2019-04-26T06:31:06.074Z,25.06
2019-04-26T06:32:05.411Z,25.12
2019-04-26T06:33:06.284Z,25.19
2019-04-26T06:34:05.827Z,25.38
2019-04-26T06:35:06.080Z,25.44
2019-04-26T06:36:05.613Z,25.56
2019-04-26T06:37:05.822Z,25.69
2019-04-26T06:38:06.428Z,25.69
2019-04-26T06:39:05.874Z,25.81
2019-04-26T06:40:05.268Z,26.12
2019-04-26T06:41:05.340Z,26.06
2019-04-26T06:42:06.105Z,26.38
2019-04-26T06:43:06.078Z,26.62
2019-04-26T06:44:05.587Z,26.56
2019-04-26T06:45:05.841Z,26.62
2019-04-26T06:46:05.971Z,26.50
2019-04-26T06:47:06.675Z,26.56
2019-04-26T06:48:06.104Z,26.50
2019-04-26T06:49:05.723Z,26.62
2019-04-26T06:50:05.900Z,26.69
2019-04-26T06:51:05.208Z,26.69
2019-04-26T06:52:05.415Z,26.62
2019-04-26T06:53:06.265Z,26.62
2019-04-26T06:54:05.587Z,26.75
2019-04-26T06:55:05.346Z,26.75
2019-04-26T06:56:05.788Z,26.88
2019-04-26T06:57:08.708Z,27.00
2019-04-26T06:58:05.354Z,26.94
2019-04-26T06:59:05.876Z,26.94
2019-04-26T07:00:06.561Z,27.06
2019-04-26T07:01:05.941Z,27.06
2019-04-26T07:02:06.122Z,27.38
2019-04-26T07:03:05.753Z,27.62
2019-04-26T07:04:05.265Z,27.75
2019-04-26T07:05:06.742Z,27.62
2019-04-26T07:06:05.077Z,27.75
2019-04-26T07:07:05.828Z,27.88
2019-04-26T07:08:05.568Z,27.94
2019-04-26T07:09:05.508Z,28.06
2019-04-26T07:10:06.321Z,28.19
2019-04-26T07:11:06.867Z,28.19
2019-04-26T07:12:05.510Z,28.06
2019-04-26T07:13:05.978Z,28.00
2019-04-26T07:14:06.652Z,28.12
2019-04-26T07:15:05.809Z,28.06
2019-04-26T07:16:17.579Z,28.19
2019-04-26T07:17:07.854Z,28.31
2019-04-26T07:18:06.309Z,28.25
2019-04-26T07:19:05.703Z,28.56
2019-04-26T07:20:06.038Z,28.44
2019-04-26T07:21:06.962Z,28.25
2019-04-26T07:22:06.189Z,28.19
2019-04-26T07:23:05.891Z,28.25
2019-04-26T07:24:05.997Z,28.31
2019-04-26T07:25:05.965Z,28.25
2019-04-26T07:26:05.873Z,28.12
2019-04-26T07:27:05.518Z,28.25
2019-04-26T07:28:08.023Z,28.12
2019-04-26T07:29:06.736Z,27.88
2019-04-26T07:30:05.291Z,27.75
2019-04-26T07:31:06.205Z,27.75
2019-04-26T07:32:05.319Z,27.75
2019-04-26T07:33:06.257Z,27.62
2019-04-26T07:34:05.971Z,27.69
2019-04-26T07:35:05.260Z,28.00
2019-04-26T07:36:05.572Z,28.00
2019-04-26T07:37:05.258Z,27.88
2019-04-26T07:38:06.826Z,27.69
2019-04-26T07:39:15.276Z,27.75
2019-04-26T07:40:06.969Z,27.62
2019-04-26T07:41:05.584Z,27.69
2019-04-26T07:42:05.905Z,27.75
2019-04-26T07:43:06.149Z,27.94
2019-04-26T07:44:05.646Z,28.06
2019-04-26T07:45:05.620Z,28.00
2019-04-26T07:46:05.845Z,28.06
2019-04-26T07:47:05.920Z,28.00
2019-04-26T07:48:05.585Z,27.88
2019-04-26T07:49:06.764Z,27.88
2019-04-26T07:50:05.407Z,27.69
2019-04-26T07:51:06.474Z,27.69
2019-04-26T07:52:06.398Z,27.75
2019-04-26T07:53:05.130Z,27.75
2019-04-26T07:54:06.665Z,27.75
2019-04-26T07:55:06.621Z,27.69
2019-04-26T07:56:05.251Z,27.75
2019-04-26T07:57:06.589Z,27.62
2019-04-26T07:58:05.356Z,27.69
2019-04-26T07:59:05.984Z,27.81
2019-04-26T08:00:06.514Z,27.75
2019-04-26T08:01:05.487Z,27.81
2019-04-26T08:02:06.375Z,27.94
2019-04-26T08:03:06.948Z,28.00
2019-04-26T08:04:05.500Z,28.00
2019-04-26T08:05:07.162Z,28.00
2019-04-26T08:06:05.852Z,28.00
2019-04-26T08:07:06.292Z,28.12
2019-04-26T08:08:06.841Z,28.25
2019-04-26T08:09:05.943Z,28.19
2019-04-26T08:10:05.971Z,28.25
2019-04-26T08:11:06.178Z,28.44
2019-04-26T08:12:06.060Z,28.44
2019-04-26T08:13:06.066Z,28.38
2019-04-26T08:14:06.194Z,28.38
2019-04-26T08:15:06.137Z,28.31
2019-04-26T08:16:06.675Z,28.25
2019-04-26T08:17:06.523Z,28.38
2019-04-26T08:18:06.574Z,28.44
2019-04-26T08:19:06.672Z,28.56
2019-04-26T08:20:09.599Z,28.38
2019-04-26T08:21:07.645Z,28.12
2019-04-26T08:22:15.831Z,28.19
2019-04-26T08:23:07.288Z,28.19
2019-04-26T08:24:06.106Z,28.19
2019-04-26T08:25:06.651Z,28.00
2019-04-26T08:26:06.473Z,28.12
2019-04-26T08:27:09.684Z,28.12
2019-04-26T08:28:05.831Z,28.25
2019-04-26T08:29:06.482Z,28.19
2019-04-26T08:30:08.145Z,28.06
2019-04-26T08:31:07.286Z,28.25
2019-04-26T08:32:05.255Z,28.25
2019-04-26T08:33:06.347Z,28.44
2019-04-26T08:34:05.871Z,28.31
2019-04-26T08:35:06.695Z,28.31
2019-04-26T08:36:06.046Z,28.38
2019-04-26T08:37:06.655Z,28.38
2019-04-26T08:38:06.526Z,28.31
2019-04-26T08:39:05.932Z,28.31
2019-04-26T08:40:05.346Z,28.31
2019-04-26T08:41:06.158Z,28.31
2019-04-26T08:42:09.594Z,28.31
2019-04-26T08:43:06.082Z,28.19
2019-04-26T08:44:05.748Z,28.25
2019-04-26T08:45:08.851Z,28.12
2019-04-26T08:46:09.198Z,28.19
2019-04-26T08:47:05.929Z,28.19
2019-04-26T08:48:05.087Z,28.31
2019-04-26T08:49:06.331Z,28.12
2019-04-26T08:50:08.670Z,27.75
2019-04-26T08:51:06.003Z,27.56
2019-04-26T08:52:14.103Z,27.69
2019-04-26T08:53:05.326Z,27.69
2019-04-26T08:54:05.523Z,27.81
2019-04-26T08:55:05.644Z,28.00
2019-04-26T08:56:05.809Z,28.12
2019-04-26T08:57:06.068Z,28.31
2019-04-26T08:58:05.778Z,28.38
2019-04-26T08:59:05.727Z,28.44
2019-04-26T09:00:05.732Z,28.25
2019-04-26T09:01:05.179Z,28.31
2019-04-26T09:02:05.904Z,28.38
2019-04-26T09:03:11.477Z,28.25
2019-04-26T09:04:05.594Z,28.00
2019-04-26T09:05:05.743Z,28.06
2019-04-26T09:06:05.897Z,28.06
2019-04-26T09:07:05.587Z,28.19
2019-04-26T09:08:05.727Z,28.25
2019-04-26T09:09:05.812Z,28.31
2019-04-26T09:10:10.549Z,28.38
2019-04-26T09:11:05.737Z,28.38
2019-04-26T09:12:08.135Z,28.31
2019-04-26T09:13:05.514Z,28.25
2019-04-26T09:14:05.666Z,28.25
2019-04-26T09:15:06.139Z,28.19
2019-04-26T09:16:05.445Z,28.38
2019-04-26T09:17:05.979Z,28.25
2019-04-26T09:18:06.015Z,28.19
2019-04-26T09:19:05.250Z,28.12
2019-04-26T09:20:07.759Z,27.94
2019-04-26T09:21:05.995Z,27.88
2019-04-26T09:22:12.670Z,27.94
2019-04-26T09:23:05.900Z,27.88
2019-04-26T09:24:08.027Z,27.81
2019-04-26T09:25:05.514Z,28.00
2019-04-26T09:26:08.479Z,27.88
2019-04-26T09:27:06.013Z,27.75
2019-04-26T09:28:05.387Z,27.88
2019-04-26T09:29:05.494Z,27.81
2019-04-26T09:30:06.332Z,27.75
2019-04-26T09:31:06.057Z,27.81
2019-04-26T09:32:05.578Z,28.06
2019-04-26T09:33:05.945Z,28.19
2019-04-26T09:34:06.273Z,28.31
2019-04-26T09:35:05.587Z,28.31
2019-04-26T09:36:05.998Z,28.50
2019-04-26T09:37:05.494Z,28.75
2019-04-26T09:38:05.671Z,28.75
2019-04-26T09:39:08.172Z,28.69
2019-04-26T09:40:10.297Z,28.81
2019-04-26T09:41:05.522Z,28.94
2019-04-26T09:42:09.421Z,28.75
2019-04-26T09:43:05.181Z,28.56
2019-04-26T09:44:05.195Z,28.44
2019-04-26T09:45:05.431Z,28.38
2019-04-26T09:46:05.979Z,28.44
2019-04-26T09:47:05.273Z,28.31
2019-04-26T09:48:05.102Z,28.12
2019-04-26T09:49:06.913Z,28.12
2019-04-26T09:50:05.819Z,28.12
2019-04-26T09:51:05.430Z,27.81
2019-04-26T09:52:05.424Z,27.75
2019-04-26T09:53:05.671Z,27.88
2019-04-26T09:54:05.264Z,27.62
2019-04-26T09:55:05.579Z,27.62
2019-04-26T09:56:05.977Z,27.94
2019-04-26T09:57:05.896Z,27.75
2019-04-26T09:58:05.139Z,27.75
2019-04-26T09:59:05.804Z,27.50
2019-04-26T10:00:05.347Z,27.38
2019-04-26T10:01:06.237Z,27.00
2019-04-26T10:02:05.890Z,27.00
2019-04-26T10:03:08.878Z,27.00
2019-04-26T10:04:05.125Z,27.00
2019-04-26T10:05:07.943Z,27.00
2019-04-26T10:06:08.138Z,27.06
2019-04-26T10:07:05.683Z,26.94
2019-04-26T10:08:08.213Z,26.75
2019-04-26T10:09:05.166Z,26.75
2019-04-26T10:10:05.652Z,26.94
2019-04-26T10:11:05.679Z,27.31
2019-04-26T10:12:05.100Z,27.44
2019-04-26T10:13:05.355Z,27.31
2019-04-26T10:14:05.516Z,27.06
2019-04-26T10:15:05.580Z,26.94
2019-04-26T10:16:05.832Z,27.19
2019-04-26T10:17:05.416Z,27.25
2019-04-26T10:18:08.037Z,27.00
2019-04-26T10:19:05.353Z,27.06
2019-04-26T10:20:05.581Z,27.06
2019-04-26T10:21:05.928Z,27.12
2019-04-26T10:22:05.981Z,27.12
2019-04-26T10:23:06.446Z,27.25
2019-04-26T10:24:08.151Z,27.12
2019-04-26T10:25:07.216Z,27.31
2019-04-26T10:26:05.747Z,27.31
2019-04-26T10:27:06.068Z,27.25
2019-04-26T10:28:05.576Z,27.19
2019-04-26T10:29:05.100Z,27.06
2019-04-26T10:30:08.804Z,26.81
2019-04-26T10:31:06.070Z,26.62
2019-04-26T10:32:05.274Z,26.62
2019-04-26T10:33:05.566Z,26.75
2019-04-26T10:34:07.635Z,26.69
2019-04-26T10:35:06.081Z,26.81
2019-04-26T10:36:05.181Z,26.94
2019-04-26T10:37:05.986Z,26.88
2019-04-26T10:38:05.269Z,26.88
2019-04-26T10:39:05.728Z,26.81
2019-04-26T10:40:06.010Z,26.94
2019-04-26T10:41:05.375Z,26.88
2019-04-26T10:42:06.007Z,27.00
2019-04-26T10:43:06.054Z,27.25
2019-04-26T10:44:05.535Z,27.44
2019-04-26T10:45:05.668Z,27.38
2019-04-26T10:46:05.652Z,27.19
2019-04-26T10:47:06.016Z,27.12
2019-04-26T10:48:05.741Z,27.12
2019-04-26T10:49:09.025Z,27.25
2019-04-26T10:50:05.427Z,27.38
2019-04-26T10:51:07.256Z,27.44
2019-04-26T10:52:05.977Z,27.19
2019-04-26T10:53:05.427Z,27.06
2019-04-26T10:54:06.154Z,26.94
2019-04-26T10:55:05.106Z,27.00
2019-04-26T10:56:05.412Z,26.94
2019-04-26T10:57:05.825Z,26.94
2019-04-26T10:58:05.004Z,26.88
2019-04-26T10:59:05.986Z,26.88
2019-04-26T11:00:05.244Z,26.94
2019-04-26T11:01:05.436Z,26.88
2019-04-26T11:02:05.596Z,27.00
2019-04-26T11:03:06.140Z,26.94
2019-04-26T11:04:05.816Z,27.00
2019-04-26T11:05:05.411Z,27.00
2019-04-26T11:06:05.660Z,26.88
2019-04-26T11:07:05.330Z,26.88
2019-04-26T11:08:05.612Z,26.94
2019-04-26T11:09:05.808Z,26.88
2019-04-26T11:10:05.983Z,26.81
2019-04-26T11:11:06.060Z,26.75
2019-04-26T11:12:05.283Z,26.50
2019-04-26T11:13:05.757Z,26.50
2019-04-26T11:14:05.970Z,26.75
2019-04-26T11:15:06.209Z,26.75
2019-04-26T11:16:06.962Z,26.69
2019-04-26T11:17:05.173Z,26.69
2019-04-26T11:18:05.335Z,26.69
2019-04-26T11:19:05.981Z,26.75
2019-04-26T11:20:06.138Z,26.69
2019-04-26T11:21:06.043Z,26.62
2019-04-26T11:22:05.813Z,26.69
2019-04-26T11:23:08.089Z,26.69
2019-04-26T11:24:06.056Z,26.81
2019-04-26T11:25:07.444Z,26.94
2019-04-26T11:26:05.820Z,26.94
2019-04-26T11:27:09.454Z,26.94
2019-04-26T11:28:05.420Z,27.31
2019-04-26T11:29:05.662Z,27.50
2019-04-26T11:30:11.382Z,27.44
2019-04-26T11:31:05.805Z,27.25
2019-04-26T11:32:05.582Z,27.19
2019-04-26T11:33:07.170Z,27.19
2019-04-26T11:34:05.781Z,27.12
2019-04-26T11:35:05.646Z,26.94
2019-04-26T11:36:07.264Z,26.88
2019-04-26T11:37:06.049Z,26.75
2019-04-26T11:38:05.428Z,27.06
2019-04-26T11:39:07.289Z,27.12
2019-04-26T11:40:05.108Z,27.25
2019-04-26T11:41:06.725Z,27.00
2019-04-26T11:42:07.898Z,26.69
2019-04-26T11:43:05.570Z,26.69
2019-04-26T11:44:05.723Z,26.69
2019-04-26T11:45:10.639Z,26.62
2019-04-26T11:46:06.039Z,26.31
2019-04-26T11:47:07.704Z,26.25
2019-04-26T11:48:05.606Z,26.38
2019-04-26T11:49:07.049Z,26.12
2019-04-26T11:50:05.703Z,26.12
2019-04-26T11:51:05.681Z,26.25
2019-04-26T11:52:05.817Z,26.12
2019-04-26T11:53:06.113Z,25.81
2019-04-26T11:54:05.484Z,25.50
2019-04-26T11:55:05.370Z,25.31
2019-04-26T11:56:05.781Z,25.19
2019-04-26T11:57:08.110Z,25.06
2019-04-26T11:58:05.165Z,25.06
2019-04-26T11:59:05.972Z,25.25
2019-04-26T12:00:06.546Z,25.38
2019-04-26T12:01:05.569Z,25.25
2019-04-26T12:02:05.093Z,25.25
2019-04-26T12:03:05.722Z,25.44
2019-04-26T12:04:07.190Z,25.44
2019-04-26T12:05:05.896Z,25.44
2019-04-26T12:06:05.341Z,25.25
2019-04-26T12:07:05.591Z,25.38
2019-04-26T12:08:06.159Z,25.50
2019-04-26T12:09:05.097Z,25.38
2019-04-26T12:10:09.418Z,25.25
2019-04-26T12:11:17.546Z,25.31
2019-04-26T12:12:09.064Z,25.38
2019-04-26T12:13:06.173Z,25.38
2019-04-26T12:14:05.899Z,25.25
2019-04-26T12:15:08.396Z,25.19
2019-04-26T12:16:05.579Z,25.38
2019-04-26T12:17:05.685Z,25.38
2019-04-26T12:18:09.519Z,25.69
2019-04-26T12:19:05.502Z,25.69
2019-04-26T12:20:05.658Z,25.75
2019-04-26T12:21:05.163Z,25.62
2019-04-26T12:22:08.186Z,25.81
2019-04-26T12:23:05.338Z,26.06
2019-04-26T12:24:04.999Z,26.00
2019-04-26T12:25:07.111Z,26.19
2019-04-26T12:26:05.746Z,26.06
2019-04-26T12:27:06.039Z,26.25
2019-04-26T12:28:05.949Z,26.19
2019-04-26T12:29:06.144Z,26.25
2019-04-26T12:30:05.490Z,26.00
2019-04-26T12:31:05.659Z,25.81
2019-04-26T12:32:05.177Z,25.94
2019-04-26T12:33:05.674Z,26.06
2019-04-26T12:34:05.742Z,26.00
2019-04-26T12:35:05.988Z,26.00
2019-04-26T12:36:09.428Z,26.12
2019-04-26T12:37:05.414Z,26.19
2019-04-26T12:38:05.992Z,26.56
2019-04-26T12:39:05.514Z,26.69
2019-04-26T12:40:07.113Z,26.50
2019-04-26T12:41:05.537Z,26.38
2019-04-26T12:42:08.066Z,26.25
2019-04-26T12:43:05.324Z,26.38
2019-04-26T12:44:05.978Z,26.19
2019-04-26T12:45:05.177Z,26.12
2019-04-26T12:46:05.351Z,26.00
2019-04-26T12:47:05.742Z,26.12
2019-04-26T12:48:07.899Z,25.94
2019-04-26T12:49:05.490Z,25.81
2019-04-26T12:50:05.582Z,25.56
2019-04-26T12:51:08.097Z,25.44
2019-04-26T12:52:05.370Z,25.56
2019-04-26T12:53:05.526Z,25.69